Time;durP1;ratioP1;P1;durP2;ratioP2;P2;SDS_P1;SDS_P2;PMS_P1;PMS_P2;Temp;Humidity;BMP_temperature;BMP_pressure;BME280_temperature;BME280_humidity;BME280_pressure;Samples;Min_cycle;Max_cycle;Signal;HPM_P1;HPM_P2
2022/11/12 00:01:07;;;;;;;8.30;4.37;;;6.90;99.90;;;;;;4983127;28;20485;-71
2022/11/12 00:03:35;;;;;;;13.63;4.53;;;6.80;99.90;;;;;;4990851;28;20489;-71
2022/11/12 00:06:02;;;;;;;8.10;5.17;;;6.80;99.90;;;;;;4975047;28;21155;-70
2022/11/12 00:08:30;;;;;;;5.30;4.47;;;7.20;99.90;;;;;;4982303;28;20467;-71
2022/11/12 00:10:57;;;;;;;4.60;3.40;;;7.00;99.90;;;;;;4975222;28;20466;-71
2022/11/12 00:13:23;;;;;;;8.47;3.60;;;7.00;99.90;;;;;;4986748;28;20460;-71
2022/11/12 00:15:50;;;;;;;4.83;3.77;;;7.00;99.90;;;;;;4974077;28;20494;-71
2022/11/12 00:18:17;;;;;;;6.47;4.17;;;6.90;99.90;;;;;;4987382;28;20456;-70
2022/11/12 00:20:44;;;;;;;8.90;5.03;;;6.90;99.90;;;;;;4974133;28;20811;-70
2022/11/12 00:23:11;;;;;;;6.83;4.30;;;6.70;99.90;;;;;;4978037;28;20817;-70
2022/11/12 00:25:39;;;;;;;5.10;3.40;;;6.60;99.90;;;;;;4982412;28;20450;-70
2022/11/12 00:28:07;;;;;;;9.67;4.33;;;6.90;99.90;;;;;;4978680;28;20450;-69
2022/11/12 00:30:37;;;;;;;5.93;4.27;;;7.10;99.90;;;;;;4982861;28;20495;-70
2022/11/12 00:33:05;;;;;;;6.73;4.03;;;7.10;99.90;;;;;;4979061;28;20487;-70
2022/11/12 00:35:32;;;;;;;5.17;3.73;;;7.20;99.90;;;;;;4982209;28;20456;-71
2022/11/12 00:37:59;;;;;;;7.63;4.63;;;7.20;99.90;;;;;;4979291;28;20455;-72
2022/11/12 00:40:27;;;;;;;7.27;4.30;;;6.90;99.90;;;;;;4989186;28;20556;-69
2022/11/12 00:42:55;;;;;;;4.87;3.60;;;7.00;99.90;;;;;;4978649;28;20453;-70
2022/11/12 00:45:22;;;;;;;5.17;4.10;;;6.90;99.90;;;;;;4986438;28;20536;-70
2022/11/12 00:47:49;;;;;;;9.00;5.70;;;6.70;99.90;;;;;;4980535;28;20544;-69
2022/11/12 00:50:16;;;;;;;6.00;3.50;;;6.90;99.90;;;;;;4979336;28;20946;-70
2022/11/12 00:52:43;;;;;;;6.00;3.80;;;6.90;99.90;;;;;;4980104;28;20452;-71
2022/11/12 00:55:10;;;;;;;5.83;3.80;;;6.80;99.90;;;;;;4979938;28;20453;-70
2022/11/12 00:57:37;;;;;;;5.40;3.43;;;7.00;99.90;;;;;;4980825;28;20516;-68
2022/11/12 01:00:07;;;;;;;9.43;3.90;;;7.00;99.90;;;;;;4979230;28;20463;-72
2022/11/12 01:02:34;;;;;;;21.13;3.80;;;6.60;99.90;;;;;;4993536;28;20449;-71
2022/11/12 01:05:01;;;;;;;5.97;3.10;;;6.30;99.90;;;;;;4979912;28;20810;-72
2022/11/12 01:07:28;;;;;;;7.00;4.07;;;6.20;99.90;;;;;;4982425;28;20472;-71
2022/11/12 01:09:54;;;;;;;4.63;4.10;;;6.10;99.90;;;;;;4975727;28;21163;-71
2022/11/12 01:12:21;;;;;;;8.20;4.07;;;6.00;99.90;;;;;;4982331;28;20448;-71
2022/11/12 01:14:48;;;;;;;5.50;4.43;;;5.90;99.90;;;;;;4978348;28;20453;-71
2022/11/12 01:17:16;;;;;;;5.50;3.70;;;5.90;99.90;;;;;;4982941;28;20532;-71
2022/11/12 01:19:43;;;;;;;5.70;4.07;;;5.90;99.90;;;;;;4980819;28;20460;-71
2022/11/12 01:22:11;;;;;;;5.10;3.10;;;5.90;99.90;;;;;;4986530;28;20816;-72
2022/11/12 01:24:38;;;;;;;5.00;3.67;;;5.80;99.90;;;;;;4991910;28;20452;-72
2022/11/12 01:27:04;;;;;;;4.47;3.50;;;5.70;99.90;;;;;;4983195;28;20455;-71
2022/11/12 01:29:31;;;;;;;4.23;3.57;;;5.80;99.90;;;;;;4994723;28;20942;-71
2022/11/12 01:31:58;;;;;;;4.23;3.60;;;5.80;99.90;;;;;;4981684;28;20538;-71
2022/11/12 01:34:27;;;;;;;4.90;3.70;;;6.00;99.90;;;;;;4993378;28;20499;-71
2022/11/12 01:36:54;;;;;;;7.70;4.50;;;5.90;99.90;;;;;;4980244;28;20477;-71
2022/11/12 01:39:20;;;;;;;7.70;5.00;;;5.90;99.90;;;;;;4994581;28;20454;-71
2022/11/12 01:41:47;;;;;;;4.97;3.33;;;5.90;99.90;;;;;;4988569;28;20453;-71
2022/11/12 01:44:16;;;;;;;8.47;4.27;;;5.70;99.90;;;;;;4993467;28;20457;-71
2022/11/12 01:46:55;;;;;;;5.53;4.33;;;5.80;99.90;;;;;;4978752;28;20473;-71
2022/11/12 01:49:27;;;;;;;4.90;3.60;;;5.80;99.90;;;;;;4995482;28;20787;-71
2022/11/12 01:51:55;;;;;;;4.90;4.13;;;5.90;99.90;;;;;;4980731;28;20992;-71
2022/11/12 01:54:23;;;;;;;5.00;4.07;;;5.80;99.90;;;;;;4988066;28;20511;-71
2022/11/12 01:56:51;;;;;;;2.97;2.63;;;5.70;99.90;;;;;;4986009;28;20580;-71
2022/11/12 01:59:24;;;;;;;4.50;3.80;;;5.60;99.90;;;;;;4991685;28;20448;-70
2022/11/12 02:01:51;;;;;;;9.57;5.00;;;5.90;99.90;;;;;;4989672;28;20499;-69
2022/11/12 02:04:18;;;;;;;5.23;3.23;;;5.80;99.90;;;;;;4978647;28;20448;-68
2022/11/12 02:06:48;;;;;;;8.63;3.60;;;5.80;99.90;;;;;;4987276;28;20993;-69
2022/11/12 02:09:15;;;;;;;5.67;4.13;;;5.60;99.90;;;;;;4981477;28;20552;-73
2022/11/12 02:11:42;;;;;;;5.20;3.40;;;5.80;99.90;;;;;;4986008;28;20454;-69
2022/11/12 02:14:08;;;;;;;8.70;3.10;;;5.60;99.90;;;;;;4971344;28;20446;-69
2022/11/12 02:16:38;;;;;;;5.93;3.83;;;5.50;99.90;;;;;;4976293;28;20487;-68
2022/11/12 02:19:07;;;;;;;5.40;2.80;;;5.40;99.90;;;;;;4979310;28;20467;-69
2022/11/12 02:21:36;;;;;;;4.30;3.20;;;5.30;99.90;;;;;;4983688;28;20463;-69
2022/11/12 02:24:05;;;;;;;3.80;3.50;;;5.40;99.90;;;;;;4981457;28;20981;-69
2022/11/12 02:26:36;;;;;;;6.53;2.50;;;5.40;99.90;;;;;;4982613;28;20457;-69
2022/11/12 02:29:03;;;;;;;4.93;3.03;;;5.70;99.90;;;;;;4983113;28;20461;-69
2022/11/12 02:31:30;;;;;;;6.00;3.77;;;5.90;99.90;;;;;;4972033;28;20458;-69
2022/11/12 02:33:57;;;;;;;3.73;3.10;;;6.00;99.90;;;;;;4983265;28;20457;-69
2022/11/12 02:36:24;;;;;;;4.67;3.80;;;5.80;99.90;;;;;;4972020;28;20485;-69
2022/11/12 02:38:53;;;;;;;3.33;3.03;;;5.70;99.90;;;;;;4986306;28;20445;-69
2022/11/12 02:41:20;;;;;;;5.07;2.80;;;5.70;99.90;;;;;;4980146;28;20468;-69
2022/11/12 02:43:47;;;;;;;5.60;3.97;;;5.80;99.90;;;;;;4976407;28;20814;-69
2022/11/12 02:46:14;;;;;;;4.00;2.33;;;5.80;99.90;;;;;;4978589;28;20464;-69
2022/11/12 02:48:41;;;;;;;4.20;2.90;;;5.80;99.90;;;;;;4976676;28;20457;-68
2022/11/12 02:51:08;;;;;;;3.80;2.50;;;5.40;99.90;;;;;;4978870;28;20445;-69
2022/11/12 02:53:35;;;;;;;4.90;2.57;;;5.10;99.90;;;;;;4984199;28;20464;-68
2022/11/12 02:56:03;;;;;;;3.87;2.47;;;5.10;99.90;;;;;;4980764;28;20829;-69
2022/11/12 02:58:31;;;;;;;4.73;2.87;;;5.10;99.90;;;;;;4988024;28;20457;-69
2022/11/12 03:00:58;;;;;;;7.10;3.83;;;5.00;99.90;;;;;;4981532;28;20486;-69
2022/11/12 03:03:24;;;;;;;4.73;2.97;;;5.10;99.90;;;;;;4981167;28;20491;-69
2022/11/12 03:05:56;;;;;;;4.90;3.13;;;5.40;99.90;;;;;;4988723;28;20452;-69
2022/11/12 03:08:23;;;;;;;4.10;2.90;;;5.80;99.90;;;;;;4986844;28;20471;-69
2022/11/12 03:10:50;;;;;;;5.30;3.20;;;5.90;99.90;;;;;;4993340;28;20456;-69
2022/11/12 03:13:19;;;;;;;5.83;3.83;;;5.80;99.90;;;;;;4987505;28;20947;-69
2022/11/12 03:15:46;;;;;;;7.20;3.30;;;5.80;99.90;;;;;;4986327;28;20456;-69
2022/11/12 03:18:13;;;;;;;5.37;3.90;;;5.90;99.90;;;;;;4978848;28;20495;-69
2022/11/12 03:20:39;;;;;;;4.60;4.00;;;5.90;99.90;;;;;;4984782;28;20469;-68
2022/11/12 03:23:08;;;;;;;5.03;3.00;;;5.80;99.90;;;;;;4987503;28;20451;-69
2022/11/12 03:25:35;;;;;;;3.13;2.50;;;5.60;99.90;;;;;;4991691;28;20595;-68
2022/11/12 03:28:04;;;;;;;3.03;2.73;;;5.50;99.90;;;;;;4979741;28;20460;-69
2022/11/12 03:30:34;;;;;;;3.83;2.93;;;5.60;99.90;;;;;;4984442;28;20951;-69
2022/11/12 03:33:01;;;;;;;3.97;2.57;;;5.50;99.90;;;;;;4988421;28;20552;-69
2022/11/12 03:35:28;;;;;;;4.13;2.90;;;5.30;99.90;;;;;;4981413;28;20461;-69
2022/11/12 03:37:55;;;;;;;3.50;2.60;;;5.20;99.90;;;;;;4991573;28;20483;-69
2022/11/12 03:40:22;;;;;;;3.33;2.60;;;5.40;99.90;;;;;;4989052;28;20971;-69
2022/11/12 03:42:51;;;;;;;2.40;2.20;;;5.30;99.90;;;;;;4991738;28;20943;-69
2022/11/12 03:45:19;;;;;;;4.40;2.63;;;5.30;99.90;;;;;;4981601;28;20454;-69
2022/11/12 03:47:49;;;;;;;3.40;3.10;;;5.20;99.90;;;;;;4990851;28;20461;-68
2022/11/12 03:50:18;;;;;;;3.83;2.73;;;5.20;99.90;;;;;;4987537;28;20537;-69
2022/11/12 03:52:46;;;;;;;3.60;2.90;;;5.20;99.90;;;;;;4988453;28;20466;-68
2022/11/12 03:55:14;;;;;;;3.50;2.20;;;5.40;99.90;;;;;;4992978;28;20455;-69
2022/11/12 03:57:41;;;;;;;3.30;2.53;;;5.20;99.90;;;;;;4986053;28;20515;-68
2022/11/12 04:00:10;;;;;;;3.17;2.40;;;5.30;99.90;;;;;;4983362;28;20465;-69
2022/11/12 04:02:37;;;;;;;3.23;1.83;;;5.20;99.90;;;;;;4992589;28;20448;-69
2022/11/12 04:10:41;;;;;;;2.77;2.03;;;5.10;99.90;;;;;;4992201;28;20961;-68
2022/11/12 04:24:03;;;;;;;3.50;2.63;;;5.00;99.90;;;;;;4987058;28;20439;-68
2022/11/12 04:26:29;;;;;;;3.03;2.13;;;5.00;99.90;;;;;;4984541;28;20559;-68
2022/11/12 04:31:40;;;;;;;5.33;2.40;;;5.10;99.90;;;;;;4991934;28;20282;-68
2022/11/12 04:36:53;;;;;;;2.37;1.60;;;5.20;99.90;;;;;;4972547;28;20497;-68
2022/11/12 04:39:20;;;;;;;2.70;2.40;;;5.20;99.90;;;;;;4985262;28;20459;-68
2022/11/12 04:47:14;;;;;;;2.67;2.33;;;5.10;99.90;;;;;;4978638;28;20443;-68
2022/11/12 04:49:41;;;;;;;4.30;2.00;;;5.10;99.90;;;;;;4986973;28;20471;-68
2022/11/12 04:52:09;;;;;;;3.87;2.77;;;5.20;99.90;;;;;;4990929;28;21005;-68
2022/11/12 04:54:36;;;;;;;3.60;2.27;;;5.30;99.90;;;;;;4991935;28;20453;-68
2022/11/12 04:57:03;;;;;;;3.17;2.17;;;5.30;99.90;;;;;;4980541;28;20502;-68
2022/11/12 04:59:30;;;;;;;2.50;1.73;;;5.30;99.90;;;;;;4990794;28;20819;-68
2022/11/12 05:01:56;;;;;;;3.00;2.17;;;5.30;99.90;;;;;;4988601;28;20581;-68
2022/11/12 05:04:26;;;;;;;3.40;1.93;;;5.40;99.90;;;;;;4981479;28;20948;-68
2022/11/12 05:06:53;;;;;;;2.50;1.53;;;5.50;99.90;;;;;;4988152;28;20460;-68
2022/11/12 05:09:24;;;;;;;2.63;2.20;;;5.50;99.90;;;;;;4982149;28;20605;-68
2022/11/12 05:11:51;;;;;;;2.60;2.10;;;5.80;99.90;;;;;;4988329;28;20455;-68
2022/11/12 05:14:18;;;;;;;2.70;1.90;;;5.80;99.90;;;;;;4991606;28;20464;-68
2022/11/12 05:16:45;;;;;;;2.23;1.80;;;5.60;99.90;;;;;;4986011;28;20457;-68
2022/11/12 05:19:12;;;;;;;3.10;2.70;;;5.50;99.90;;;;;;4984220;28;20447;-69
2022/11/12 05:24:25;;;;;;;3.00;2.40;;;5.50;99.90;;;;;;4990328;28;20907;-68
2022/11/12 05:26:53;;;;;;;3.63;2.37;;;5.50;99.90;;;;;;4979484;28;20449;-68
2022/11/12 05:29:19;;;;;;;2.13;1.93;;;5.40;99.90;;;;;;4988803;28;20456;-68
2022/11/12 05:31:46;;;;;;;2.20;1.80;;;5.50;99.90;;;;;;4976213;28;20468;-68
2022/11/12 05:34:13;;;;;;;3.10;2.03;;;5.30;99.90;;;;;;4985766;28;20547;-69
2022/11/12 05:36:40;;;;;;;2.17;1.97;;;5.30;99.90;;;;;;4990274;28;20463;-68
2022/11/12 05:39:06;;;;;;;1.70;1.40;;;5.40;99.90;;;;;;4990060;28;20456;-68
2022/11/12 05:41:35;;;;;;;4.00;1.87;;;5.50;99.90;;;;;;4981038;28;20454;-69
2022/11/12 05:44:02;;;;;;;2.43;1.90;;;5.70;99.90;;;;;;4983463;28;20457;-68
2022/11/12 05:46:29;;;;;;;3.77;2.10;;;5.50;99.90;;;;;;4975192;28;20465;-68
2022/11/12 05:48:55;;;;;;;2.43;2.20;;;5.40;99.90;;;;;;4986105;28;20535;-68
2022/11/12 05:51:22;;;;;;;2.10;1.60;;;5.20;99.90;;;;;;4990867;28;20460;-68
2022/11/12 05:53:49;;;;;;;4.70;2.10;;;5.10;99.90;;;;;;4977023;28;20447;-68
2022/11/12 05:56:16;;;;;;;2.93;2.10;;;5.20;99.90;;;;;;4989614;28;20532;-68
2022/11/12 05:58:44;;;;;;;2.53;2.07;;;5.10;99.90;;;;;;4982993;28;20480;-68
2022/11/12 06:01:11;;;;;;;2.63;1.90;;;5.00;99.90;;;;;;4990681;28;21101;-68
2022/11/12 06:03:38;;;;;;;2.20;2.00;;;5.00;99.90;;;;;;4989347;28;20455;-68
2022/11/12 06:06:05;;;;;;;2.13;1.90;;;5.00;99.90;;;;;;4991325;28;20462;-68
2022/11/12 06:08:32;;;;;;;3.20;2.03;;;5.00;99.90;;;;;;4980576;28;20488;-69
2022/11/12 06:10:58;;;;;;;3.10;2.30;;;4.90;99.90;;;;;;4980695;28;20455;-68
2022/11/12 06:13:26;;;;;;;2.40;1.50;;;4.80;99.90;;;;;;4987544;28;20460;-68
2022/11/12 06:15:55;;;;;;;2.20;1.70;;;4.80;99.90;;;;;;4979956;28;20787;-68
2022/11/12 06:18:22;;;;;;;3.37;1.77;;;4.80;99.90;;;;;;4990900;28;20508;-68
2022/11/12 06:21:18;;;;;;;3.00;1.90;;;4.70;99.90;;;;;;4990701;28;20474;-68
2022/11/12 06:23:36;;;;;;;2.80;2.03;;;4.80;99.90;;;;;;4985214;28;20450;-68
2022/11/12 06:26:04;;;;;;;3.00;2.13;;;4.70;99.90;;;;;;4990411;28;20455;-68
2022/11/12 06:28:31;;;;;;;2.80;1.77;;;4.70;99.90;;;;;;4977538;28;20965;-68
2022/11/12 06:30:59;;;;;;;2.30;1.43;;;4.70;99.90;;;;;;4985700;28;20567;-68
2022/11/12 06:33:26;;;;;;;2.10;1.70;;;4.60;99.90;;;;;;4991916;28;20453;-68
2022/11/12 06:36:01;;;;;;;2.50;2.00;;;4.60;99.90;;;;;;4990309;28;20443;-68
2022/11/12 06:38:30;;;;;;;13.60;1.90;;;4.60;99.90;;;;;;4991555;28;20473;-68
2022/11/12 06:40:56;;;;;;;2.00;1.50;;;4.60;99.90;;;;;;4989013;28;20539;-68
2022/11/12 06:43:23;;;;;;;2.80;2.43;;;4.60;99.90;;;;;;4985133;28;20462;-68
2022/11/12 06:45:50;;;;;;;3.13;2.20;;;4.70;99.90;;;;;;4989101;28;20453;-68
2022/11/12 06:48:18;;;;;;;2.93;2.10;;;4.60;99.90;;;;;;4989044;28;20450;-68
2022/11/12 06:50:45;;;;;;;3.30;2.93;;;4.70;99.90;;;;;;4990590;28;20808;-68
2022/11/12 06:53:12;;;;;;;2.13;1.90;;;4.70;99.90;;;;;;4979111;28;20461;-68
2022/11/12 06:55:39;;;;;;;4.07;2.93;;;4.70;99.90;;;;;;4979105;28;20450;-67
2022/11/12 06:58:05;;;;;;;3.13;2.33;;;4.80;99.90;;;;;;4994045;28;20482;-68
2022/11/12 07:00:32;;;;;;;3.13;2.40;;;4.80;99.90;;;;;;4992612;28;20989;-69
2022/11/12 07:02:59;;;;;;;2.83;2.17;;;4.80;99.90;;;;;;4982948;28;20453;-69
2022/11/12 07:05:27;;;;;;;3.57;2.60;;;4.80;99.90;;;;;;4988072;28;20460;-68
2022/11/12 07:07:54;;;;;;;2.20;2.00;;;4.80;99.90;;;;;;4991346;28;20464;-68
2022/11/12 07:10:21;;;;;;;6.30;2.37;;;4.80;99.90;;;;;;4987802;28;21015;-68
2022/11/12 07:12:48;;;;;;;3.97;2.53;;;4.90;99.90;;;;;;4986621;28;20452;-69
2022/11/12 07:15:15;;;;;;;4.87;2.73;;;5.00;99.90;;;;;;4979878;28;20458;-68
2022/11/12 07:17:45;;;;;;;3.33;2.60;;;4.90;99.90;;;;;;4997662;28;20487;-69
2022/11/12 07:20:12;;;;;;;5.10;3.03;;;5.00;99.90;;;;;;4994547;28;20959;-68
2022/11/12 07:22:40;;;;;;;4.50;2.20;;;5.00;99.90;;;;;;4997293;28;20456;-69
2022/11/12 07:25:08;;;;;;;3.33;2.33;;;5.10;99.90;;;;;;4991099;28;20483;-69
2022/11/12 07:27:35;;;;;;;2.50;2.30;;;5.20;99.90;;;;;;4992844;28;20459;-68
2022/11/12 07:30:02;;;;;;;5.03;2.90;;;5.50;99.90;;;;;;4995012;28;20464;-70
2022/11/12 07:32:29;;;;;;;3.33;2.27;;;5.40;99.90;;;;;;4996491;28;20474;-69
2022/11/12 07:34:56;;;;;;;4.03;2.87;;;5.40;99.90;;;;;;4987859;28;20460;-68
2022/11/12 07:37:23;;;;;;;3.10;2.77;;;5.50;99.90;;;;;;4990048;28;20463;-68
2022/11/12 07:39:51;;;;;;;5.07;2.80;;;5.40;99.90;;;;;;4989031;28;20448;-68
2022/11/12 07:42:18;;;;;;;4.67;2.23;;;5.40;99.90;;;;;;4989356;28;20462;-68
2022/11/12 07:44:44;;;;;;;3.17;2.70;;;5.70;99.90;;;;;;4986238;28;20459;-68
2022/11/12 07:47:11;;;;;;;3.73;2.47;;;5.60;99.90;;;;;;4992206;28;20484;-68
2022/11/12 07:49:38;;;;;;;3.83;3.00;;;5.70;99.90;;;;;;4988011;28;20459;-68
2022/11/12 07:52:05;;;;;;;2.60;2.40;;;5.70;99.90;;;;;;4990737;28;20457;-69
2022/11/12 07:54:32;;;;;;;3.33;2.87;;;5.90;99.90;;;;;;4976865;28;20470;-68
2022/11/12 07:57:00;;;;;;;2.50;2.13;;;6.40;99.90;;;;;;4985951;28;20558;-68
2022/11/12 07:59:27;;;;;;;3.93;3.50;;;;;;;;;;4986708;28;20860;-68
2022/11/12 08:01:54;;;;;;;3.00;2.47;;;7.10;99.90;;;;;;4990150;28;20484;-69
2022/11/12 08:04:20;;;;;;;3.63;2.43;;;7.50;1.00;;;;;;4982617;28;20460;-68
2022/11/12 08:06:48;;;;;;;5.10;3.00;;;7.10;27.60;;;;;;4986503;28;20459;-68
2022/11/12 08:09:15;;;;;;;3.17;2.53;;;7.60;75.50;;;;;;4985452;28;20463;-68
2022/11/12 08:11:41;;;;;;;3.50;2.27;;;7.40;1.00;;;;;;4980588;28;20466;-68
2022/11/12 08:14:10;;;;;;;2.60;2.30;;;7.50;8.90;;;;;;4992441;28;20485;-68
2022/11/12 08:16:37;;;;;;;2.63;2.43;;;7.50;1.00;;;;;;4988612;28;20458;-67
2022/11/12 08:19:03;;;;;;;3.63;2.70;;;7.70;1.00;;;;;;4983887;28;20487;-68
2022/11/12 08:21:30;;;;;;;3.20;2.20;;;7.10;1.00;;;;;;4985898;28;20448;-68
2022/11/12 08:23:57;;;;;;;3.47;2.80;;;6.90;59.50;;;;;;4991287;28;20447;-68
2022/11/12 08:26:25;;;;;;;5.27;2.80;;;6.90;99.90;;;;;;4989482;28;20465;-68
2022/11/12 08:28:52;;;;;;;3.57;2.40;;;7.10;99.90;;;;;;4992834;28;20458;-68
2022/11/12 08:31:22;;;;;;;4.70;2.60;;;7.10;99.90;;;;;;4991264;28;20464;-69
2022/11/12 08:33:50;;;;;;;3.50;3.10;;;7.10;99.90;;;;;;4990756;28;20439;-68
2022/11/12 08:36:17;;;;;;;2.30;2.10;;;7.00;99.90;;;;;;4979100;28;20453;-69
2022/11/12 08:38:45;;;;;;;3.27;2.50;;;7.00;99.90;;;;;;4983570;28;20479;-68
2022/11/12 08:41:15;;;;;;;2.07;1.87;;;7.20;99.90;;;;;;4987387;28;20463;-69
2022/11/12 08:43:42;;;;;;;2.93;2.40;;;7.30;99.90;;;;;;4979720;28;20491;-68
2022/11/12 08:46:10;;;;;;;4.03;2.13;;;7.30;99.90;;;;;;4982166;28;20453;-69
2022/11/12 08:48:39;;;;;;;2.93;2.63;;;7.40;99.90;;;;;;4986008;28;20455;-68
2022/11/12 08:51:07;;;;;;;4.30;2.30;;;7.50;99.90;;;;;;4988546;28;20457;-69
2022/11/12 08:53:34;;;;;;;3.10;2.07;;;7.60;40.30;;;;;;4991250;28;20458;-69
2022/11/12 08:56:01;;;;;;;2.80;1.90;;;7.60;31.70;;;;;;4979278;28;20454;-68
2022/11/12 08:58:27;;;;;;;4.40;3.10;;;7.80;3.30;;;;;;4987225;28;20495;-68
2022/11/12 09:00:55;;;;;;;3.80;3.30;;;7.80;1.00;;;;;;4987729;28;20534;-68
2022/11/12 09:03:24;;;;;;;2.30;2.10;;;7.90;1.00;;;;;;4981844;28;20541;-68
2022/11/12 09:05:52;;;;;;;3.20;2.20;;;8.00;1.00;;;;;;4977532;28;20457;-69
2022/11/12 09:08:21;;;;;;;11.10;3.67;;;8.10;1.00;;;;;;4980880;28;20461;-69
2022/11/12 09:10:49;;;;;;;5.30;3.40;;;8.20;1.00;;;;;;4983857;28;20512;-71
2022/11/12 09:13:17;;;;;;;4.10;2.97;;;8.40;1.00;;;;;;4983945;28;20951;-69
2022/11/12 09:15:44;;;;;;;5.23;2.53;;;8.50;1.00;;;;;;4990669;28;20818;-70
2022/11/12 09:18:13;;;;;;;3.40;2.80;;;8.60;1.00;;;;;;4979013;28;20512;-68
2022/11/12 09:20:40;;;;;;;2.77;2.47;;;8.60;1.00;;;;;;4984450;28;20453;-68
2022/11/12 09:23:11;;;;;;;5.47;3.00;;;8.70;1.00;;;;;;4991175;28;20461;-68
2022/11/12 09:25:39;;;;;;;4.23;2.93;;;8.80;1.00;;;;;;4990296;28;20452;-68
2022/11/12 09:28:08;;;;;;;3.30;1.70;;;8.80;1.00;;;;;;4980286;28;20463;-71
2022/11/12 09:30:35;;;;;;;3.20;2.03;;;8.90;1.00;;;;;;4982092;28;20467;-70
2022/11/12 09:33:02;;;;;;;2.90;2.33;;;9.00;1.00;;;;;;4989805;28;20545;-71
2022/11/12 09:35:29;;;;;;;4.37;2.53;;;9.10;1.00;;;;;;4989758;28;20458;-71
2022/11/12 09:37:57;;;;;;;4.00;2.30;;;9.20;1.00;;;;;;4989938;28;20488;-71
2022/11/12 09:40:41;;;;;;;3.70;2.43;;;9.40;1.00;;;;;;4990760;28;20447;-72
2022/11/12 09:43:18;;;;;;;2.40;2.10;;;9.50;1.00;;;;;;4981729;28;20457;-72
2022/11/12 09:45:47;;;;;;;2.67;2.07;;;9.60;99.90;;;;;;4984140;28;20452;-72
2022/11/12 09:48:20;;;;;;;3.93;2.40;;;9.70;99.90;;;;;;4989238;28;20451;-72
2022/11/12 09:50:55;;;;;;;5.40;2.90;;;9.70;1.00;;;;;;4982739;28;20440;-71
2022/11/12 09:53:29;;;;;;;4.60;2.90;;;9.80;1.00;;;;;;4974456;28;20456;-73
2022/11/12 09:55:58;;;;;;;3.70;2.47;;;9.80;1.00;;;;;;4978665;28;20926;-73
2022/11/12 09:58:26;;;;;;;4.40;3.10;;;10.10;1.00;;;;;;4980672;28;20582;-70
2022/11/12 10:00:57;;;;;;;5.13;3.40;;;10.00;1.00;;;;;;4985208;28;20488;-71
2022/11/12 10:03:33;;;;;;;4.37;3.60;;;10.00;1.00;;;;;;4985874;28;20462;-73
2022/11/12 10:06:04;;;;;;;3.57;3.10;;;10.10;1.00;;;;;;4972845;28;20454;-72
2022/11/12 10:08:40;;;;;;;3.97;2.60;;;10.20;5.50;;;;;;4986818;28;20461;-72
2022/11/12 10:11:30;;;;;;;4.07;2.40;;;10.20;1.00;;;;;;4980429;28;20453;-72
2022/11/12 10:14:08;;;;;;;2.83;2.53;;;10.30;1.00;;;;;;4970862;28;20537;-71
2022/11/12 10:16:48;;;;;;;3.90;2.77;;;10.40;92.30;;;;;;4974067;28;20450;-68
2022/11/12 10:19:25;;;;;;;3.30;2.00;;;10.40;1.00;;;;;;4981145;28;20473;-71
2022/11/12 10:22:03;;;;;;;5.23;2.50;;;10.50;1.00;;;;;;4977269;28;20449;-71
2022/11/12 10:24:35;;;;;;;3.20;2.50;;;10.50;1.00;;;;;;4977300;28;20460;-71
2022/11/12 10:27:15;;;;;;;3.00;1.97;;;10.70;1.00;;;;;;4980251;28;20457;-71
2022/11/12 10:29:49;;;;;;;3.10;2.23;;;10.70;1.00;;;;;;4974689;28;20469;-71
2022/11/12 10:32:16;;;;;;;4.03;3.27;;;10.70;1.00;;;;;;4981776;28;20437;-70
2022/11/12 10:34:43;;;;;;;5.43;2.97;;;10.80;1.00;;;;;;4973384;28;20469;-70
2022/11/12 10:37:17;;;;;;;3.40;2.30;;;10.90;99.90;;;;;;4982609;28;20464;-71
2022/11/12 10:39:46;;;;;;;4.93;2.67;;;11.00;97.60;;;;;;4976188;28;20581;-71
2022/11/12 10:42:16;;;;;;;4.67;2.57;;;11.20;1.00;;;;;;4985050;28;20457;-71
2022/11/12 10:44:43;;;;;;;4.60;2.90;;;11.10;99.90;;;;;;4984118;28;20478;-71
2022/11/12 10:47:24;;;;;;;3.17;2.30;;;11.20;99.90;;;;;;4990477;28;20570;-71
2022/11/12 10:50:21;;;;;;;4.40;3.20;;;11.30;99.90;;;;;;4984052;28;20459;-71
2022/11/12 10:52:58;;;;;;;3.67;2.93;;;11.30;99.90;;;;;;4988929;28;20550;-71
2022/11/12 10:55:26;;;;;;;3.10;2.67;;;11.30;99.90;;;;;;4979489;28;20445;-71
2022/11/12 10:58:18;;;;;;;4.20;3.27;;;11.40;99.90;;;;;;4980609;28;20453;-70
2022/11/12 11:01:00;;;;;;;3.27;2.37;;;11.40;99.90;;;;;;4982196;28;20485;-71
2022/11/12 11:03:30;;;;;;;8.53;2.83;;;11.60;1.00;;;;;;4976524;28;20446;-71
2022/11/12 11:06:00;;;;;;;2.60;2.13;;;11.70;1.00;;;;;;4979980;28;20452;-69
2022/11/12 11:08:36;;;;;;;3.07;2.60;;;11.70;1.00;;;;;;4981376;28;20461;-69
2022/11/12 11:11:22;;;;;;;5.13;2.70;;;11.70;1.00;;;;;;4979527;28;20817;-70
2022/11/12 11:13:52;;;;;;;3.67;2.53;;;11.70;99.90;;;;;;4987957;28;20441;-71
2022/11/12 11:16:20;;;;;;;3.47;2.77;;;11.80;75.10;;;;;;4977342;28;20458;-71
2022/11/12 11:18:51;;;;;;;4.33;3.33;;;11.90;1.00;;;;;;4982452;28;20837;-71
2022/11/12 11:21:31;;;;;;;4.40;3.30;;;11.90;99.90;;;;;;4974886;28;21102;-71
2022/11/12 11:24:18;;;;;;;5.97;4.77;;;12.00;99.90;;;;;;4984135;28;20438;-71
2022/11/12 11:26:56;;;;;;;5.90;3.87;;;12.00;85.40;;;;;;4980865;28;20455;-71
2022/11/12 11:29:43;;;;;;;5.83;3.83;;;11.90;99.90;;;;;;4980086;28;20452;-71
2022/11/12 11:32:28;;;;;;;5.00;4.00;;;12.00;99.90;;;;;;4985089;28;20541;-71
2022/11/12 11:35:05;;;;;;;4.17;3.77;;;12.00;99.90;;;;;;4986277;28;20449;-71
2022/11/12 11:37:42;;;;;;;5.63;4.40;;;12.10;1.00;;;;;;4976808;28;20457;-71
2022/11/12 11:40:15;;;;;;;8.37;3.80;;;12.00;99.90;;;;;;4988504;28;20473;-71
2022/11/12 11:43:08;;;;;;;6.30;4.03;;;12.00;99.90;;;;;;4979620;28;20450;-71
2022/11/12 11:45:50;;;;;;;4.57;3.80;;;12.00;1.00;;;;;;4972875;28;20462;-71
2022/11/12 11:48:26;;;;;;;3.93;3.50;;;11.90;99.90;;;;;;4974857;28;20472;-71
2022/11/12 11:51:02;;;;;;;5.80;4.20;;;12.00;99.90;;;;;;4974488;28;20461;-71
2022/11/12 11:53:38;;;;;;;5.63;4.30;;;12.00;99.90;;;;;;4971676;28;20472;-71
2022/11/12 11:56:14;;;;;;;5.57;4.23;;;12.10;99.90;;;;;;4978909;28;20460;-70
2022/11/12 11:58:58;;;;;;;3.90;3.30;;;12.10;1.00;;;;;;4987770;28;20560;-70
2022/11/12 12:01:35;;;;;;;7.13;5.43;;;12.20;68.70;;;;;;4983267;28;20481;-70
2022/11/12 12:04:21;;;;;;;5.07;4.57;;;12.20;1.00;;;;;;4987062;28;20460;-70
2022/11/12 12:07:03;;;;;;;4.10;3.60;;;12.20;99.90;;;;;;4975127;28;20456;-70
2022/11/12 12:09:42;;;;;;;7.07;3.53;;;12.30;64.00;;;;;;4987810;28;21014;-70
2022/11/12 12:12:21;;;;;;;5.30;3.13;;;12.30;99.90;;;;;;4975749;28;20455;-70
2022/11/12 12:14:57;;;;;;;7.97;6.87;;;12.40;1.00;;;;;;4973444;28;20442;-71
2022/11/12 12:17:39;;;;;;;14.10;8.50;;;12.50;1.00;;;;;;4984216;28;20455;-72
2022/11/12 12:20:18;;;;;;;5.73;3.87;;;12.50;1.00;;;;;;4988584;28;20473;-72
2022/11/12 12:22:49;;;;;;;5.67;4.33;;;12.60;99.90;;;;;;4989076;28;20963;-71
2022/11/12 12:25:19;;;;;;;5.00;3.00;;;12.60;1.00;;;;;;4983913;28;20461;-72
2022/11/12 12:27:52;;;;;;;5.50;3.60;;;12.70;99.90;;;;;;4988256;28;20461;-70
2022/11/12 12:30:21;;;;;;;5.00;3.53;;;12.80;99.90;;;;;;4982365;28;20456;-70
2022/11/12 12:32:56;;;;;;;4.37;3.73;;;12.80;99.90;;;;;;4988017;28;20450;-68
2022/11/12 12:35:27;;;;;;;6.07;4.20;;;12.80;35.50;;;;;;4982620;28;20452;-70
2022/11/12 12:38:02;;;;;;;6.77;3.20;;;12.80;69.40;;;;;;4983078;28;20450;-69
2022/11/12 12:40:34;;;;;;;4.77;3.77;;;12.90;1.00;;;;;;4986950;28;20473;-69
2022/11/12 12:43:06;;;;;;;4.20;3.70;;;13.00;1.00;;;;;;4983373;28;20454;-70
2022/11/12 12:45:39;;;;;;;7.03;5.07;;;13.00;1.00;;;;;;4971955;28;20457;-70
2022/11/12 12:48:12;;;;;;;7.70;5.87;;;13.10;1.00;;;;;;4982223;28;20449;-70
2022/11/12 12:50:42;;;;;;;5.53;4.63;;;13.10;99.90;;;;;;4973142;28;20450;-68
2022/11/12 12:53:18;;;;;;;8.50;5.27;;;13.20;1.00;;;;;;4988620;28;20475;-70
2022/11/12 12:55:46;;;;;;;6.03;5.23;;;13.10;99.90;;;;;;4975637;28;20457;-69
2022/11/12 12:58:20;;;;;;;4.57;3.67;;;13.10;1.00;;;;;;4978148;28;20461;-71
2022/11/12 13:00:50;;;;;;;4.70;3.30;;;13.10;1.00;;;;;;4987000;28;20497;-71
2022/11/12 13:03:50;;;;;;;4.20;3.73;;;13.10;1.00;;;;;;4980989;28;20454;-73
2022/11/12 13:06:24;;;;;;;5.87;4.30;;;13.20;99.90;;;;;;4986646;28;20457;-74
2022/11/12 13:08:55;;;;;;;5.20;3.97;;;13.10;99.90;;;;;;4982972;28;20820;-73
2022/11/12 13:14:58;;;;;;;4.73;3.53;;;13.40;99.90;;;;;;4973626;28;20517;-68
2022/11/12 13:17:47;;;;;;;4.70;3.70;;;13.40;1.00;;;;;;4979034;28;21111;-74
2022/11/12 13:20:34;;;;;;;5.73;3.40;;;13.40;1.00;;;;;;4986511;28;20489;-74
2022/11/12 13:23:01;;;;;;;5.63;4.50;;;13.50;1.00;;;;;;4972245;28;20465;-75
2022/11/12 13:25:29;;;;;;;6.43;3.10;;;13.60;1.00;;;;;;4981025;28;20455;-73
2022/11/12 13:28:08;;;;;;;5.40;3.23;;;13.60;1.00;;;;;;4982603;28;20452;-73
2022/11/12 13:31:01;;;;;;;4.60;3.40;;;13.60;1.00;;;;;;4979947;28;20830;-74
2022/11/12 13:33:31;;;;;;;5.20;3.50;;;13.60;1.00;;;;;;4988037;28;20461;-74
2022/11/12 13:36:27;;;;;;;5.87;3.93;;;13.50;1.00;;;;;;4984724;28;20530;-74
2022/11/12 13:39:10;;;;;;;6.50;4.10;;;13.70;99.90;;;;;;4975386;28;20796;-75
2022/11/12 13:44:22;;;;;;;5.77;3.10;;;13.60;1.00;;;;;;4978742;28;20503;-72
2022/11/12 13:46:52;;;;;;;4.67;3.23;;;13.60;1.00;;;;;;4987594;28;20456;-75
2022/11/12 13:49:19;;;;;;;7.10;5.00;;;13.50;1.00;;;;;;4985028;28;20458;-74